createdAt,value
2023-02-23T00:01:01.381Z,24.88
2023-02-23T00:03:04.400Z,27.13
2023-02-23T00:05:09.193Z,25.88
2023-02-23T00:07:11.761Z,26.92
2023-02-23T00:09:22.959Z,26.45
2023-02-23T00:11:27.034Z,30.05
2023-02-23T00:13:29.883Z,27.65
2023-02-23T00:15:32.383Z,27.35
2023-02-23T00:17:36.668Z,28.33
2023-02-23T00:19:39.258Z,27.30
2023-02-23T00:21:43.236Z,24.77
2023-02-23T00:23:50.254Z,25.00
2023-02-23T00:25:52.828Z,25.30
2023-02-23T00:27:55.396Z,22.30
2023-02-23T00:29:58.064Z,22.85
2023-02-23T00:32:00.716Z,22.85
2023-02-23T00:34:04.463Z,22.58
2023-02-23T00:36:09.311Z,21.90
2023-02-23T00:38:13.938Z,21.10
2023-02-23T00:40:20.729Z,21.73
2023-02-23T00:42:23.662Z,22.25
2023-02-23T00:44:26.204Z,21.00
2023-02-23T00:46:30.573Z,21.45
2023-02-23T00:48:33.831Z,21.52
2023-02-23T00:50:38.942Z,20.85
2023-02-23T00:52:42.520Z,22.17
2023-02-23T00:54:46.454Z,23.33
2023-02-23T00:56:49.418Z,23.48
2023-02-23T00:58:52.076Z,21.30
2023-02-23T01:00:54.977Z,22.13
2023-02-23T01:02:57.676Z,22.45
2023-02-23T01:05:00.204Z,23.92
2023-02-23T01:07:06.342Z,22.05
2023-02-23T01:09:10.920Z,22.08
2023-02-23T01:11:16.532Z,22.48
2023-02-23T01:13:20.037Z,20.83
2023-02-23T01:15:22.595Z,20.13
2023-02-23T01:17:25.173Z,19.15
2023-02-23T01:19:28.522Z,18.92
2023-02-23T01:21:33.622Z,20.25
2023-02-23T01:23:36.951Z,20.48
2023-02-23T01:25:40.360Z,21.17
2023-02-23T01:27:44.689Z,20.48
2023-02-23T01:29:47.216Z,19.67
2023-02-23T01:31:52.083Z,21.80
2023-02-23T01:33:55.380Z,20.52
2023-02-23T01:35:59.200Z,21.15
2023-02-23T01:38:01.956Z,19.88
2023-02-23T01:40:10.623Z,20.73
2023-02-23T01:42:14.570Z,19.27
2023-02-23T01:44:54.542Z,19.48
2023-02-23T01:46:58.523Z,19.67
2023-02-23T01:49:01.707Z,18.98
2023-02-23T01:51:09.061Z,19.77
2023-02-23T01:53:11.900Z,19.55
2023-02-23T01:55:22.862Z,19.15
2023-02-23T01:57:26.953Z,19.33
2023-02-23T01:59:34.955Z,20.95
2023-02-23T02:01:38.555Z,18.65
2023-02-23T02:03:47.842Z,18.98
2023-02-23T02:05:51.568Z,19.75
2023-02-23T02:07:58.938Z,20.55
2023-02-23T02:10:33.839Z,21.77
2023-02-23T02:12:36.475Z,19.92
2023-02-23T02:14:39.712Z,19.80
2023-02-23T02:17:02.183Z,21.00
2023-02-23T02:19:49.686Z,19.17
2023-02-23T02:22:14.331Z,19.92
2023-02-23T02:25:02.148Z,19.45
2023-02-23T02:27:19.201Z,19.63
2023-02-23T02:29:50.835Z,19.55
2023-02-23T02:32:27.257Z,19.33
2023-02-23T02:34:47.950Z,19.10
2023-02-23T02:37:18.223Z,21.08
2023-02-23T02:39:36.579Z,20.67
2023-02-23T02:41:51.191Z,18.95
2023-02-23T02:44:01.029Z,19.30
2023-02-23T02:46:11.244Z,18.65
2023-02-23T02:48:21.845Z,20.58
2023-02-23T02:50:31.397Z,19.92
2023-02-23T02:52:40.180Z,20.05
2023-02-23T02:54:48.958Z,19.65
2023-02-23T02:56:57.632Z,20.70
2023-02-23T02:59:01.535Z,21.15
2023-02-23T03:01:27.227Z,20.80
2023-02-23T03:03:50.692Z,20.02
2023-02-23T03:06:13.433Z,19.90
2023-02-23T03:08:40.847Z,20.40
2023-02-23T03:11:06.481Z,19.95
2023-02-23T03:13:37.308Z,20.63
2023-02-23T03:16:10.289Z,20.77
2023-02-23T03:18:44.605Z,23.17
2023-02-23T03:21:12.557Z,22.95
2023-02-23T03:23:39.164Z,22.02
2023-02-23T03:26:09.969Z,22.73
2023-02-23T03:28:35.204Z,21.35
2023-02-23T03:31:04.726Z,20.58
2023-02-23T03:33:31.002Z,22.23
2023-02-23T03:35:58.686Z,20.95
2023-02-23T03:38:24.570Z,21.95
2023-02-23T03:40:50.990Z,22.63
2023-02-23T03:43:15.007Z,21.08
2023-02-23T03:45:39.651Z,23.08
2023-02-23T03:48:03.267Z,21.60
2023-02-23T03:50:28.467Z,21.35
2023-02-23T03:52:54.707Z,23.00
2023-02-23T03:55:18.189Z,23.02
2023-02-23T03:57:43.281Z,22.50
2023-02-23T04:00:10.962Z,22.27
2023-02-23T04:02:33.600Z,22.67
2023-02-23T04:04:54.920Z,22.38
2023-02-23T04:07:18.207Z,22.13
2023-02-23T04:09:38.138Z,21.90
2023-02-23T04:12:05.586Z,23.05
2023-02-23T04:14:18.388Z,23.00
2023-02-23T04:16:20.107Z,22.38
2023-02-23T04:20:27.900Z,22.27
2023-02-23T04:22:30.470Z,23.50
2023-02-23T04:24:33.126Z,21.48
2023-02-23T04:26:35.683Z,21.48
2023-02-23T04:28:38.262Z,20.70
2023-02-23T04:30:42.449Z,21.17
2023-02-23T04:32:46.105Z,21.33
2023-02-23T04:34:51.384Z,22.40
2023-02-23T04:36:53.973Z,20.30
2023-02-23T04:38:56.626Z,21.80
2023-02-23T04:41:01.078Z,21.23
2023-02-23T04:43:03.667Z,20.25
2023-02-23T04:45:07.182Z,19.88
2023-02-23T04:47:11.179Z,20.40
2023-02-23T04:49:13.714Z,19.95
2023-02-23T04:51:16.643Z,20.92
2023-02-23T04:53:19.442Z,19.95
2023-02-23T04:55:24.048Z,21.13
2023-02-23T04:57:26.876Z,21.10
2023-02-23T04:59:29.431Z,19.95
2023-02-23T05:01:32.619Z,20.58
2023-02-23T05:03:36.558Z,19.52
2023-02-23T05:05:39.497Z,21.45
2023-02-23T05:07:42.068Z,19.67
2023-02-23T05:09:44.631Z,20.90
2023-02-23T05:11:47.323Z,21.60
2023-02-23T05:13:49.869Z,23.17
2023-02-23T05:15:57.587Z,19.73
2023-02-23T05:18:00.168Z,21.73
2023-02-23T05:20:04.245Z,19.73
2023-02-23T05:22:07.117Z,20.67
2023-02-23T05:24:10.040Z,20.92
2023-02-23T05:26:14.577Z,20.55
2023-02-23T05:28:17.130Z,19.80
2023-02-23T05:30:19.797Z,18.50
2023-02-23T05:32:22.384Z,19.80
2023-02-23T05:34:24.988Z,20.38
2023-02-23T05:36:28.932Z,18.27
2023-02-23T05:38:31.518Z,20.05
2023-02-23T05:40:34.259Z,19.45
2023-02-23T05:42:38.436Z,18.38
2023-02-23T05:44:41.109Z,18.67
2023-02-23T05:46:43.675Z,18.38
2023-02-23T05:48:46.416Z,18.42
2023-02-23T05:50:49.533Z,18.83
2023-02-23T05:52:53.791Z,18.65
2023-02-23T05:54:56.662Z,19.20
2023-02-23T05:57:01.678Z,18.67
2023-02-23T05:59:04.813Z,19.08
2023-02-23T06:01:07.375Z,18.65
2023-02-23T06:03:09.898Z,18.10
2023-02-23T06:05:13.524Z,18.73
2023-02-23T06:07:16.176Z,18.75
2023-02-23T06:09:20.091Z,19.50
2023-02-23T06:11:22.985Z,18.13
2023-02-23T06:13:25.510Z,18.65
2023-02-23T06:15:29.918Z,20.05
2023-02-23T06:17:32.648Z,18.40
2023-02-23T06:19:35.343Z,19.90
2023-02-23T06:21:38.182Z,19.83
2023-02-23T06:23:40.752Z,19.35
2023-02-23T06:25:45.129Z,18.92
2023-02-23T06:27:47.887Z,19.55
2023-02-23T06:29:50.443Z,19.67
2023-02-23T06:31:53.268Z,19.27
2023-02-23T06:33:56.581Z,20.15
2023-02-23T06:36:00.504Z,19.42
2023-02-23T06:38:03.647Z,18.75
2023-02-23T06:40:07.753Z,19.45
2023-02-23T06:42:11.658Z,18.95
2023-02-23T06:44:14.423Z,20.02
2023-02-23T06:46:17.043Z,18.63
2023-02-23T06:48:19.596Z,19.67
2023-02-23T06:50:22.645Z,18.35
2023-02-23T06:52:25.706Z,17.65
2023-02-23T06:54:28.269Z,18.58
2023-02-23T06:56:30.839Z,18.25
2023-02-23T06:58:34.724Z,18.50
2023-02-23T07:00:37.398Z,18.42
2023-02-23T07:02:40.280Z,19.88
2023-02-23T07:04:43.010Z,19.25
2023-02-23T07:06:45.548Z,18.55
2023-02-23T07:08:48.073Z,19.88
2023-02-23T07:10:50.695Z,20.67
2023-02-23T07:12:54.577Z,19.42
2023-02-23T07:14:58.536Z,19.20
2023-02-23T07:17:01.052Z,18.33
2023-02-23T07:19:04.742Z,18.88
2023-02-23T07:21:07.544Z,19.48
2023-02-23T07:23:10.081Z,18.70
2023-02-23T07:25:13.669Z,17.85
2023-02-23T07:27:16.168Z,19.02
2023-02-23T07:29:18.799Z,18.25
2023-02-23T07:31:22.973Z,17.30
2023-02-23T07:33:25.918Z,18.27
2023-02-23T07:35:28.425Z,17.27
2023-02-23T07:37:30.984Z,16.95
2023-02-23T07:39:33.562Z,15.52
2023-02-23T07:41:36.104Z,15.60
2023-02-23T07:43:41.261Z,15.30
2023-02-23T07:45:46.217Z,15.45
2023-02-23T07:47:50.479Z,16.70
2023-02-23T07:49:53.024Z,15.05
2023-02-23T07:51:55.603Z,16.55
2023-02-23T07:53:58.203Z,15.23
2023-02-23T07:56:03.504Z,15.18
2023-02-23T07:58:06.490Z,15.18
2023-02-23T08:00:10.329Z,15.27
2023-02-23T08:02:14.385Z,13.88
2023-02-23T08:04:18.366Z,14.10
2023-02-23T08:06:21.152Z,14.38
2023-02-23T08:08:23.747Z,14.13
2023-02-23T08:10:26.498Z,13.00
2023-02-23T08:12:29.117Z,13.65
2023-02-23T08:14:31.677Z,12.45
2023-02-23T08:16:34.871Z,11.65
2023-02-23T08:18:37.469Z,12.10
2023-02-23T08:20:41.383Z,11.93
2023-02-23T08:22:49.805Z,12.45
2023-02-23T08:24:52.596Z,11.95
2023-02-23T08:26:55.182Z,12.02
2023-02-23T08:28:57.781Z,12.10
2023-02-23T08:31:02.879Z,12.68
2023-02-23T08:33:05.600Z,13.25
2023-02-23T08:35:08.861Z,12.57
2023-02-23T08:37:13.020Z,11.95
2023-02-23T08:39:16.547Z,13.02
2023-02-23T08:41:19.549Z,11.73
2023-02-23T08:43:22.313Z,12.07
2023-02-23T08:45:24.914Z,12.13
2023-02-23T08:47:27.456Z,11.95
2023-02-23T08:49:31.172Z,11.98
2023-02-23T08:51:34.926Z,12.60
2023-02-23T08:53:38.798Z,12.60
2023-02-23T08:55:41.346Z,13.07
2023-02-23T08:57:43.944Z,13.68
2023-02-23T08:59:46.482Z,12.27
2023-02-23T09:01:49.075Z,13.10
2023-02-23T09:03:51.626Z,13.25
2023-02-23T09:05:54.364Z,12.25
2023-02-23T09:07:56.937Z,13.13
2023-02-23T09:10:00.819Z,14.43
2023-02-23T09:12:03.426Z,15.35
2023-02-23T09:14:05.978Z,15.63
2023-02-23T09:16:08.974Z,15.45
2023-02-23T09:18:14.908Z,16.10
2023-02-23T09:20:18.522Z,15.15
2023-02-23T09:22:21.092Z,15.02
2023-02-23T09:25:22.673Z,14.52
2023-02-23T09:30:48.674Z,13.32
2023-02-23T09:32:51.962Z,13.45
2023-02-23T09:34:54.595Z,12.68
2023-02-23T09:36:57.138Z,13.02
2023-02-23T09:38:59.898Z,13.27
2023-02-23T09:41:02.476Z,12.80
2023-02-23T09:43:12.600Z,11.65
2023-02-23T09:45:24.662Z,12.15
2023-02-23T09:47:40.513Z,11.45
2023-02-23T09:49:46.481Z,7.75
2023-02-23T09:55:13.513Z,7.40
2023-02-23T09:57:20.366Z,5.68
2023-02-23T09:59:25.032Z,6.38
2023-02-23T10:01:53.738Z,6.32
2023-02-23T10:04:06.050Z,6.22
2023-02-23T10:06:13.504Z,6.75
2023-02-23T10:08:45.278Z,8.05
2023-02-23T10:10:50.524Z,8.27
2023-02-23T10:13:04.345Z,5.20
2023-02-23T10:15:24.514Z,5.70
2023-02-23T10:17:37.793Z,6.28
2023-02-23T10:19:49.706Z,6.72
2023-02-23T10:24:05.486Z,5.60
2023-02-23T10:26:14.484Z,5.57
2023-02-23T10:28:20.185Z,5.28
2023-02-23T10:30:25.158Z,5.70
2023-02-23T10:32:39.326Z,5.68
2023-02-23T10:34:45.857Z,5.38
2023-02-23T10:36:53.547Z,5.53
2023-02-23T10:38:56.127Z,6.30
2023-02-23T10:40:58.974Z,4.80
2023-02-23T10:43:02.724Z,5.68
2023-02-23T10:45:23.011Z,6.22
2023-02-23T10:47:28.612Z,6.88
2023-02-23T10:49:41.800Z,5.95
2023-02-23T10:51:46.553Z,5.80
2023-02-23T10:53:49.165Z,5.32
2023-02-23T10:56:03.845Z,5.65
2023-02-23T10:58:16.926Z,5.68
2023-02-23T11:00:32.916Z,5.75
2023-02-23T11:02:37.131Z,6.05
2023-02-23T11:04:53.034Z,5.90
2023-02-23T11:07:08.984Z,5.40
2023-02-23T11:09:33.128Z,6.30
2023-02-23T11:11:57.425Z,6.68
2023-02-23T11:13:59.986Z,5.57
2023-02-23T11:16:05.143Z,5.80
2023-02-23T11:18:08.199Z,6.00
2023-02-23T11:20:25.641Z,5.05
2023-02-23T11:22:33.121Z,5.30
2023-02-23T11:24:39.064Z,5.57
2023-02-23T11:26:44.264Z,5.15
2023-02-23T11:28:47.019Z,5.57
2023-02-23T11:30:50.629Z,5.35
2023-02-23T11:32:55.572Z,5.50
2023-02-23T11:35:27.458Z,6.65
2023-02-23T11:37:32.484Z,5.32
2023-02-23T11:42:54.624Z,5.07
2023-02-23T11:45:04.750Z,5.38
2023-02-23T11:47:14.903Z,4.97
2023-02-23T11:49:59.480Z,5.00
2023-02-23T11:52:02.389Z,4.90
2023-02-23T11:54:07.258Z,6.22
2023-02-23T11:56:11.180Z,6.25
2023-02-23T11:58:24.924Z,4.45
2023-02-23T12:00:28.739Z,4.30
2023-02-23T12:02:33.283Z,4.32
2023-02-23T12:04:38.124Z,5.28
2023-02-23T12:06:43.160Z,4.13
2023-02-23T12:08:51.577Z,4.63
2023-02-23T12:10:58.875Z,3.90
2023-02-23T12:13:10.739Z,4.55
2023-02-23T12:17:24.836Z,4.55
2023-02-23T12:19:32.654Z,4.60
2023-02-23T12:21:40.237Z,4.35
2023-02-23T12:23:49.934Z,5.57
2023-02-23T12:25:56.831Z,4.95
2023-02-23T12:28:18.077Z,5.32
2023-02-23T12:30:28.202Z,4.47
2023-02-23T12:32:45.137Z,5.10
2023-02-23T12:34:53.229Z,4.85
2023-02-23T12:37:01.082Z,4.88
2023-02-23T12:39:17.870Z,5.05
2023-02-23T12:41:31.351Z,5.55
2023-02-23T12:43:40.973Z,5.38
2023-02-23T12:45:48.411Z,5.03
2023-02-23T12:48:00.581Z,5.70
2023-02-23T12:50:11.223Z,4.82
2023-02-23T12:52:19.302Z,4.50
2023-02-23T12:54:23.462Z,4.47
2023-02-23T12:56:36.431Z,4.85
2023-02-23T12:58:45.934Z,4.57
2023-02-23T13:04:27.431Z,4.60
2023-02-23T13:08:55.692Z,4.57
2023-02-23T13:11:07.963Z,4.00
2023-02-23T13:13:24.870Z,4.50
2023-02-23T13:15:37.888Z,4.28
2023-02-23T13:17:48.723Z,4.20
2023-02-23T13:19:54.671Z,4.57
2023-02-23T13:22:02.990Z,4.22
2023-02-23T13:24:10.922Z,4.28
2023-02-23T13:26:25.441Z,3.80
2023-02-23T13:28:43.199Z,4.05
2023-02-23T13:30:47.539Z,4.57
2023-02-23T13:32:50.552Z,4.90
2023-02-23T13:34:57.241Z,5.07
2023-02-23T13:37:03.912Z,5.05
2023-02-23T13:39:29.703Z,4.65
2023-02-23T13:41:39.617Z,5.35
2023-02-23T13:43:49.678Z,5.13
2023-02-23T13:46:11.856Z,4.65
2023-02-23T13:48:26.352Z,4.88
2023-02-23T13:50:35.213Z,4.63
2023-02-23T13:52:40.548Z,5.25
2023-02-23T13:54:53.327Z,5.18
2023-02-23T13:56:59.407Z,4.72
2023-02-23T13:59:06.143Z,5.18
2023-02-23T14:01:16.345Z,4.82
2023-02-23T14:03:24.633Z,5.22
2023-02-23T14:05:31.597Z,5.32
2023-02-23T14:07:40.686Z,4.60
2023-02-23T14:09:52.123Z,5.35
2023-02-23T14:12:16.908Z,5.22
2023-02-23T14:14:45.816Z,5.20
2023-02-23T14:17:11.958Z,5.25
2023-02-23T14:19:36.186Z,4.95
2023-02-23T14:21:46.638Z,5.47
2023-02-23T14:24:02.858Z,5.68
2023-02-23T14:26:15.689Z,5.40
2023-02-23T14:28:29.885Z,5.80
2023-02-23T14:30:49.768Z,5.20
2023-02-23T14:32:53.784Z,5.80
2023-02-23T14:34:58.891Z,5.90
2023-02-23T14:37:14.961Z,5.93
2023-02-23T14:39:23.396Z,5.80
2023-02-23T14:41:29.301Z,6.55
2023-02-23T14:43:44.186Z,6.25
2023-02-23T14:45:47.629Z,6.55
2023-02-23T14:47:52.112Z,6.50
2023-02-23T14:49:57.980Z,5.97
2023-02-23T14:52:07.190Z,5.93
2023-02-23T14:54:23.031Z,5.53
2023-02-23T14:56:38.718Z,5.57
2023-02-23T14:58:53.865Z,5.78
2023-02-23T15:00:56.453Z,5.57
2023-02-23T15:03:01.250Z,5.40
2023-02-23T15:05:15.973Z,5.82
2023-02-23T15:07:25.083Z,5.60
2023-02-23T15:09:34.540Z,5.55
2023-02-23T15:11:38.050Z,5.70
2023-02-23T15:13:43.686Z,5.65
2023-02-23T15:15:49.664Z,5.32
2023-02-23T15:17:55.593Z,5.22
2023-02-23T15:20:14.663Z,5.53
2023-02-23T15:22:26.170Z,5.50
2023-02-23T15:24:33.443Z,5.43
2023-02-23T15:26:38.124Z,5.18
2023-02-23T15:28:41.585Z,5.57
2023-02-23T15:30:48.817Z,5.78
2023-02-23T15:33:00.647Z,5.97
2023-02-23T15:37:12.718Z,4.93
2023-02-23T15:39:18.527Z,5.45
2023-02-23T15:41:26.635Z,6.13
2023-02-23T15:43:30.503Z,5.55
2023-02-23T15:45:40.189Z,5.45
2023-02-23T15:47:44.394Z,4.95
2023-02-23T15:49:47.425Z,5.53
2023-02-23T15:51:52.351Z,5.40
2023-02-23T15:53:55.379Z,5.55
2023-02-23T15:56:02.902Z,5.40
2023-02-23T15:58:15.723Z,5.10
2023-02-23T16:00:27.167Z,5.70
2023-02-23T16:02:30.912Z,5.50
2023-02-23T16:04:36.714Z,5.55
2023-02-23T16:06:41.875Z,5.18
2023-02-23T16:08:57.730Z,5.68
2023-02-23T16:11:11.833Z,5.28
2023-02-23T16:13:17.786Z,6.03
2023-02-23T16:15:26.316Z,6.70
2023-02-23T16:17:35.134Z,7.00
2023-02-23T16:19:42.346Z,7.15
2023-02-23T16:21:50.315Z,8.25
2023-02-23T16:23:55.377Z,7.38
2023-02-23T16:26:01.991Z,8.75
2023-02-23T16:28:14.071Z,9.13
2023-02-23T16:30:23.144Z,8.98
2023-02-23T16:32:25.877Z,9.80
2023-02-23T16:34:37.136Z,9.50
2023-02-23T16:36:41.076Z,9.60
2023-02-23T16:38:57.705Z,9.75
2023-02-23T16:41:00.445Z,10.75
2023-02-23T16:43:03.063Z,10.38
2023-02-23T16:45:07.912Z,11.73
2023-02-23T16:47:36.428Z,9.43
2023-02-23T16:49:39.208Z,8.45
2023-02-23T16:51:43.091Z,9.40
2023-02-23T16:53:46.200Z,9.35
2023-02-23T16:55:53.388Z,10.77
2023-02-23T16:57:58.753Z,10.52
2023-02-23T17:00:01.321Z,10.73
2023-02-23T17:02:09.706Z,11.77
2023-02-23T17:04:15.289Z,10.38
2023-02-23T17:06:18.099Z,10.23
2023-02-23T17:08:22.320Z,9.30
2023-02-23T17:10:26.803Z,10.18
2023-02-23T17:12:29.412Z,9.00
2023-02-23T17:14:33.048Z,10.77
2023-02-23T17:16:35.667Z,9.23
2023-02-23T17:18:42.797Z,9.38
2023-02-23T17:20:46.327Z,9.68
2023-02-23T17:22:50.408Z,10.02
2023-02-23T17:24:54.257Z,10.50
2023-02-23T17:26:56.808Z,10.20
2023-02-23T17:28:59.360Z,10.68
2023-02-23T17:31:02.938Z,9.98
2023-02-23T17:33:06.732Z,10.43
2023-02-23T17:35:10.068Z,12.15
2023-02-23T17:37:12.604Z,11.18
2023-02-23T17:39:16.727Z,10.63
2023-02-23T17:41:21.236Z,9.10
2023-02-23T17:43:24.244Z,9.07
2023-02-23T17:45:28.382Z,8.25
2023-02-23T17:47:32.290Z,8.57
2023-02-23T17:49:34.909Z,7.43
2023-02-23T17:51:37.506Z,7.45
2023-02-23T17:53:41.099Z,7.55
2023-02-23T17:55:43.676Z,6.63
2023-02-23T17:57:47.928Z,8.15
2023-02-23T17:59:50.537Z,7.50
2023-02-23T18:01:53.139Z,8.50
2023-02-23T18:03:58.400Z,9.27
2023-02-23T18:06:01.553Z,8.65
2023-02-23T18:08:04.140Z,8.77
2023-02-23T18:10:07.693Z,8.60
2023-02-23T18:12:10.633Z,8.88
2023-02-23T18:14:14.604Z,8.85
2023-02-23T18:16:17.176Z,8.35
2023-02-23T18:18:19.802Z,7.82
2023-02-23T18:20:22.878Z,7.88
2023-02-23T18:22:25.398Z,8.38
2023-02-23T18:24:30.888Z,7.80
2023-02-23T18:26:33.568Z,8.65
2023-02-23T18:28:37.190Z,7.60
2023-02-23T18:30:41.618Z,8.27
2023-02-23T18:32:44.224Z,7.70
2023-02-23T18:34:46.852Z,8.35
2023-02-23T18:36:49.995Z,7.88
2023-02-23T18:38:52.998Z,8.80
2023-02-23T18:40:55.543Z,7.93
2023-02-23T18:42:58.913Z,8.50
2023-02-23T18:45:01.485Z,8.07
2023-02-23T18:47:05.409Z,7.35
2023-02-23T18:49:08.418Z,8.95
2023-02-23T18:51:14.077Z,8.02
2023-02-23T18:53:16.611Z,8.75
2023-02-23T18:55:20.088Z,7.45
2023-02-23T18:57:24.449Z,8.05
2023-02-23T18:59:28.039Z,8.30
2023-02-23T19:01:33.241Z,8.50
2023-02-23T19:03:37.262Z,7.25
2023-02-23T19:05:44.754Z,8.40
2023-02-23T19:07:47.331Z,9.25
2023-02-23T19:09:51.793Z,8.90
2023-02-23T19:11:54.576Z,8.77
2023-02-23T19:13:58.524Z,7.63
2023-02-23T19:16:04.189Z,8.75
2023-02-23T19:18:06.972Z,13.77
2023-02-23T19:20:15.013Z,9.98
2023-02-23T19:22:17.953Z,8.95
2023-02-23T19:24:21.034Z,7.85
2023-02-23T19:26:23.594Z,7.82
2023-02-23T19:28:29.280Z,7.95
2023-02-23T19:30:31.857Z,7.97
2023-02-23T19:32:34.519Z,7.20
2023-02-23T19:34:40.013Z,7.93
2023-02-23T19:36:46.322Z,7.93
2023-02-23T19:38:49.296Z,7.75
2023-02-23T19:40:51.830Z,8.00
2023-02-23T19:42:55.674Z,7.20
2023-02-23T19:44:58.241Z,8.10
2023-02-23T19:47:00.884Z,7.90
2023-02-23T19:49:04.386Z,7.80
2023-02-23T19:51:11.736Z,7.97
2023-02-23T19:53:16.114Z,8.20
2023-02-23T19:55:20.437Z,7.57
2023-02-23T19:57:23.199Z,8.05
2023-02-23T19:59:25.997Z,8.43
2023-02-23T20:01:29.854Z,8.25
2023-02-23T20:03:32.821Z,8.60
2023-02-23T20:05:42.185Z,10.40
2023-02-23T20:07:44.803Z,9.82
2023-02-23T20:09:48.800Z,10.82
2023-02-23T20:11:51.376Z,12.40
2023-02-23T20:13:57.461Z,11.98
2023-02-23T20:16:03.368Z,12.48
2023-02-23T20:18:07.213Z,12.07
2023-02-23T20:20:12.059Z,12.40
2023-02-23T20:22:14.619Z,12.10
2023-02-23T20:24:17.754Z,16.27
2023-02-23T20:26:24.067Z,16.27
2023-02-23T20:28:26.815Z,14.52
2023-02-23T20:30:29.421Z,14.52
2023-02-23T20:32:32.051Z,14.95
2023-02-23T20:34:35.916Z,14.05
2023-02-23T20:36:39.974Z,13.50
2023-02-23T20:38:42.555Z,14.10
2023-02-23T20:40:45.472Z,15.23
2023-02-23T20:42:51.962Z,14.85
2023-02-23T20:44:54.587Z,13.55
2023-02-23T20:46:57.231Z,15.05
2023-02-23T20:49:00.369Z,14.45
2023-02-23T20:51:03.143Z,15.65
2023-02-23T20:53:08.278Z,15.15
2023-02-23T20:55:11.426Z,14.23
2023-02-23T20:57:13.948Z,13.90
2023-02-23T20:59:20.436Z,14.35
2023-02-23T21:01:26.079Z,14.15
2023-02-23T21:03:29.106Z,14.80
2023-02-23T21:05:38.183Z,14.77
2023-02-23T21:07:42.026Z,17.75
2023-02-23T21:09:45.254Z,17.90
2023-02-23T21:11:48.734Z,18.83
2023-02-23T21:13:51.515Z,18.25
2023-02-23T21:16:01.074Z,20.02
2023-02-23T21:18:04.021Z,18.95
2023-02-23T21:20:09.675Z,17.55
2023-02-23T21:22:16.182Z,18.83
2023-02-23T21:24:20.867Z,19.20
2023-02-23T21:26:23.515Z,19.08
2023-02-23T21:28:26.033Z,19.92
2023-02-23T21:30:29.326Z,17.60
2023-02-23T21:32:35.264Z,18.20
2023-02-23T21:34:38.410Z,17.88
2023-02-23T21:36:40.952Z,18.17
2023-02-23T21:38:45.293Z,19.40
2023-02-23T21:40:47.825Z,18.92
2023-02-23T21:42:51.429Z,18.85
2023-02-23T21:44:54.116Z,18.90
2023-02-23T21:46:56.620Z,20.52
2023-02-23T21:49:03.069Z,23.00
2023-02-23T21:51:07.224Z,27.67
2023-02-23T21:53:10.256Z,22.55
2023-02-23T21:55:21.476Z,20.40
2023-02-23T21:57:26.172Z,19.85
2023-02-23T21:59:28.763Z,21.98
2023-02-23T22:01:34.477Z,22.52
2023-02-23T22:03:37.085Z,20.52
2023-02-23T22:05:41.215Z,20.85
2023-02-23T22:07:49.729Z,20.40
2023-02-23T22:09:52.262Z,19.48
2023-02-23T22:11:54.804Z,19.13
2023-02-23T22:13:59.722Z,18.48
2023-02-23T22:16:02.280Z,17.73
2023-02-23T22:18:04.887Z,19.45
2023-02-23T22:20:08.408Z,19.80
2023-02-23T22:22:12.692Z,19.90
2023-02-23T22:24:16.166Z,20.48
2023-02-23T22:26:18.694Z,18.52
2023-02-23T22:28:21.320Z,19.02
2023-02-23T22:30:23.859Z,20.40
2023-02-23T22:32:27.743Z,23.92
2023-02-23T22:34:30.459Z,20.38
2023-02-23T22:36:33.818Z,19.50
2023-02-23T22:38:38.774Z,18.65
2023-02-23T22:40:43.339Z,17.65
2023-02-23T22:42:48.985Z,17.98
2023-02-23T22:44:51.729Z,18.08
2023-02-23T22:46:54.236Z,19.38
2023-02-23T22:48:56.857Z,18.50
2023-02-23T22:50:59.902Z,19.55
2023-02-23T22:53:03.066Z,19.17
2023-02-23T22:55:07.918Z,18.25
2023-02-23T22:57:10.560Z,16.65
2023-02-23T22:59:17.367Z,16.90
2023-02-23T23:01:20.500Z,16.77
2023-02-23T23:03:23.223Z,15.80
2023-02-23T23:05:25.803Z,15.60
2023-02-23T23:07:28.617Z,16.33
2023-02-23T23:09:31.199Z,17.33
2023-02-23T23:11:36.371Z,17.17
2023-02-23T23:13:44.337Z,17.15
2023-02-23T23:15:47.644Z,16.90
2023-02-23T23:17:50.179Z,15.05
2023-02-23T23:19:52.715Z,16.90
2023-02-23T23:21:56.262Z,15.63
2023-02-23T23:24:00.859Z,17.35
2023-02-23T23:26:03.390Z,16.42
2023-02-23T23:28:07.282Z,16.15
2023-02-23T23:30:12.283Z,15.75
2023-02-23T23:32:18.149Z,15.80
2023-02-23T23:34:21.851Z,15.93
2023-02-23T23:36:26.218Z,15.45
2023-02-23T23:38:28.740Z,15.48
2023-02-23T23:40:35.613Z,15.55
2023-02-23T23:42:38.968Z,15.07
2023-02-23T23:44:43.002Z,14.23
2023-02-23T23:46:47.400Z,13.68
2023-02-23T23:48:54.201Z,13.45
2023-02-23T23:50:57.375Z,13.27
2023-02-23T23:52:59.969Z,13.80
2023-02-23T23:55:03.950Z,14.10
2023-02-23T23:57:07.106Z,13.90
2023-02-23T23:59:11.664Z,12.73
